createdAt,value
2019-02-04T00:01:56.324Z,9.00
2019-02-04T00:04:26.443Z,8.60
2019-02-04T00:06:57.407Z,9.20
2019-02-04T00:09:27.470Z,9.53
2019-02-04T00:11:57.551Z,8.67
2019-02-04T00:14:34.885Z,8.10
2019-02-04T00:17:13.130Z,8.67
2019-02-04T00:19:46.847Z,9.20
2019-02-04T00:22:22.736Z,9.50
2019-02-04T00:24:52.980Z,8.40
2019-02-04T00:27:23.059Z,8.63
2019-02-04T00:29:53.115Z,8.60
2019-02-04T00:32:23.275Z,8.37
2019-02-04T00:34:53.334Z,9.03
2019-02-04T00:37:23.367Z,9.17
2019-02-04T00:39:53.429Z,8.30
2019-02-04T00:42:23.511Z,9.17
2019-02-04T00:44:53.564Z,8.73
2019-02-04T00:47:24.106Z,8.40
2019-02-04T00:49:54.187Z,8.67
2019-02-04T00:52:24.247Z,8.53
2019-02-04T00:54:54.803Z,8.10
2019-02-04T00:57:24.884Z,8.67
2019-02-04T00:59:55.128Z,8.53
2019-02-04T01:02:25.227Z,8.40
2019-02-04T01:04:55.503Z,9.07
2019-02-04T01:07:25.545Z,8.03
2019-02-04T01:09:55.762Z,8.40
2019-02-04T01:12:25.965Z,8.77
2019-02-04T01:14:56.180Z,8.67
2019-02-04T01:17:26.283Z,9.03
2019-02-04T01:19:56.361Z,8.87
2019-02-04T01:22:26.436Z,8.63
2019-02-04T01:24:56.499Z,8.87
2019-02-04T01:27:26.925Z,8.07
2019-02-04T01:29:57.141Z,9.23
2019-02-04T01:32:28.275Z,8.40
2019-02-04T01:34:58.370Z,8.10
2019-02-04T01:37:28.436Z,8.40
2019-02-04T01:39:58.773Z,8.20
2019-02-04T01:42:28.808Z,7.87
2019-02-04T01:44:58.974Z,7.87
2019-02-04T01:47:29.047Z,8.57
2019-02-04T01:49:59.265Z,7.53
2019-02-04T01:52:29.352Z,7.50
2019-02-04T01:54:59.618Z,7.70
2019-02-04T01:57:29.686Z,7.37
2019-02-04T01:59:59.822Z,8.03
2019-02-04T02:02:29.866Z,8.73
2019-02-04T02:04:59.902Z,8.30
2019-02-04T02:07:30.147Z,7.97
2019-02-04T02:10:00.340Z,7.73
2019-02-04T02:12:30.437Z,8.20
2019-02-04T02:15:00.461Z,8.50
2019-02-04T02:17:30.556Z,8.73
2019-02-04T02:20:00.610Z,8.50
2019-02-04T02:22:30.688Z,9.33
2019-02-04T02:25:03.244Z,8.50
2019-02-04T02:27:33.279Z,8.70
2019-02-04T02:30:03.653Z,9.17
2019-02-04T02:32:33.754Z,8.80
2019-02-04T02:35:04.580Z,8.70
2019-02-04T02:37:34.718Z,9.33
2019-02-04T02:40:06.661Z,8.73
2019-02-04T02:42:36.742Z,9.60
2019-02-04T02:45:08.176Z,9.47
2019-02-04T02:47:40.414Z,9.47
2019-02-04T02:50:10.782Z,9.50
2019-02-04T02:52:41.019Z,9.97
2019-02-04T02:55:12.342Z,9.47
2019-02-04T02:57:42.632Z,9.73
2019-02-04T03:00:15.821Z,10.07
2019-02-04T03:02:45.965Z,9.23
2019-02-04T03:05:16.374Z,10.17
2019-02-04T03:07:47.034Z,9.70
2019-02-04T03:10:20.111Z,10.60
2019-02-04T03:12:50.421Z,9.70
2019-02-04T03:15:20.539Z,9.10
2019-02-04T03:17:52.456Z,10.03
2019-02-04T03:20:22.406Z,9.83
2019-02-04T03:22:52.550Z,9.53
2019-02-04T03:25:22.981Z,9.40
2019-02-04T03:27:53.041Z,10.40
2019-02-04T03:30:28.640Z,9.30
2019-02-04T03:32:58.719Z,9.70
2019-02-04T03:35:28.828Z,9.23
2019-02-04T03:37:59.266Z,10.03
2019-02-04T03:40:31.669Z,9.20
2019-02-04T03:43:01.814Z,9.70
2019-02-04T03:45:31.866Z,9.43
2019-02-04T03:48:09.067Z,10.20
2019-02-04T03:50:33.767Z,11.77
2019-02-04T03:53:04.182Z,10.80
2019-02-04T03:55:34.358Z,10.33
2019-02-04T03:58:04.612Z,11.07
2019-02-04T04:00:36.117Z,12.00
2019-02-04T04:03:06.302Z,11.97
2019-02-04T04:05:36.417Z,11.90
2019-02-04T04:08:06.707Z,12.20
2019-02-04T04:10:36.783Z,11.57
2019-02-04T04:13:06.855Z,11.20
2019-02-04T04:15:37.300Z,12.10
2019-02-04T04:18:15.581Z,11.80
2019-02-04T04:20:39.143Z,12.67
2019-02-04T04:23:09.278Z,14.37
2019-02-04T04:25:39.667Z,14.03
2019-02-04T04:28:09.757Z,15.10
2019-02-04T04:30:40.738Z,15.17
2019-02-04T04:33:10.839Z,15.00
2019-02-04T04:35:43.106Z,16.87
2019-02-04T04:38:13.298Z,16.70
2019-02-04T04:40:43.670Z,16.63
2019-02-04T04:43:14.218Z,35.90
2019-02-04T04:45:44.405Z,38.53
2019-02-04T04:48:14.628Z,45.40
2019-02-04T04:50:44.687Z,40.30
2019-02-04T04:53:14.813Z,36.63
2019-02-04T04:55:46.908Z,29.97
2019-02-04T04:58:17.039Z,43.80
2019-02-04T05:01:05.928Z,28.57
2019-02-04T05:03:36.739Z,40.87
2019-02-04T05:06:06.797Z,31.17
2019-02-04T05:08:36.978Z,40.43
2019-02-04T05:11:07.005Z,33.30
2019-02-04T05:13:37.110Z,32.33
2019-02-04T05:16:07.176Z,28.70
2019-02-04T05:18:38.536Z,24.80
2019-02-04T05:21:09.873Z,24.97
2019-02-04T05:23:40.282Z,22.07
2019-02-04T05:26:10.336Z,21.07
2019-02-04T05:28:40.538Z,20.87
2019-02-04T05:31:10.693Z,21.60
2019-02-04T05:33:41.786Z,21.53
2019-02-04T05:36:11.972Z,20.40
2019-02-04T05:38:42.004Z,21.93
2019-02-04T05:41:12.200Z,21.83
2019-02-04T05:43:42.280Z,22.33
2019-02-04T05:46:12.706Z,22.53
2019-02-04T05:48:49.338Z,23.80
2019-02-04T05:51:16.431Z,22.80
2019-02-04T05:53:46.503Z,22.67
2019-02-04T05:56:16.667Z,24.20
2019-02-04T05:58:46.792Z,30.47
2019-02-04T06:01:17.103Z,59.87
2019-02-04T06:03:47.496Z,42.37
2019-02-04T06:06:17.727Z,34.17
2019-02-04T06:08:47.780Z,35.07
2019-02-04T06:11:19.000Z,55.90
2019-02-04T06:13:49.019Z,56.40
2019-02-04T06:16:19.261Z,57.63
2019-02-04T06:19:00.171Z,32.67
2019-02-04T06:21:21.173Z,27.93
2019-02-04T06:23:51.250Z,40.47
2019-02-04T06:26:21.452Z,25.83
2019-02-04T06:28:51.563Z,31.37
2019-02-04T06:31:21.682Z,26.60
2019-02-04T06:33:51.773Z,26.90
2019-02-04T06:36:21.960Z,24.60
2019-02-04T06:38:52.008Z,24.20
2019-02-04T06:41:22.109Z,25.30
2019-02-04T06:43:52.214Z,24.97
2019-02-04T06:46:25.059Z,23.97
2019-02-04T06:48:55.133Z,25.10
2019-02-04T06:51:25.183Z,22.77
2019-02-04T06:53:55.272Z,23.93
2019-02-04T06:56:25.329Z,24.50
2019-02-04T06:58:55.366Z,23.83
2019-02-04T07:01:25.471Z,23.63
2019-02-04T07:03:55.546Z,22.93
2019-02-04T07:06:25.927Z,23.23
2019-02-04T07:08:56.024Z,22.93
2019-02-04T07:11:26.102Z,20.53
2019-02-04T07:13:56.179Z,21.47
2019-02-04T07:16:26.306Z,22.10
2019-02-04T07:18:56.393Z,22.20
2019-02-04T07:21:26.631Z,22.03
2019-02-04T07:23:56.694Z,20.47
2019-02-04T07:26:26.730Z,20.97
2019-02-04T07:28:56.793Z,20.03
2019-02-04T07:31:26.919Z,20.63
2019-02-04T07:33:57.013Z,20.27
2019-02-04T07:36:27.091Z,21.23
2019-02-04T07:38:58.617Z,19.60
2019-02-04T07:41:28.722Z,21.37
2019-02-04T07:43:58.886Z,18.93
2019-02-04T07:46:28.963Z,21.00
2019-02-04T07:48:59.523Z,21.40
2019-02-04T07:51:29.581Z,19.40
2019-02-04T07:53:59.925Z,22.33
2019-02-04T07:56:30.405Z,20.10
2019-02-04T07:59:03.356Z,21.00
2019-02-04T08:01:34.975Z,20.93
2019-02-04T08:04:06.934Z,21.80
2019-02-04T08:06:38.553Z,19.73
2019-02-04T08:09:10.794Z,19.10
2019-02-04T08:11:41.616Z,19.50
2019-02-04T08:14:14.218Z,20.00
2019-02-04T08:16:45.340Z,18.63
2019-02-04T08:19:16.315Z,18.53
2019-02-04T08:21:48.874Z,17.50
2019-02-04T08:24:19.521Z,18.93
2019-02-04T08:26:50.847Z,17.77
2019-02-04T08:29:21.539Z,17.43
2019-02-04T08:31:52.574Z,17.33
2019-02-04T08:34:23.341Z,17.30
2019-02-04T08:36:53.530Z,16.63
2019-02-04T08:39:23.587Z,14.77
2019-02-04T08:41:53.676Z,15.63
2019-02-04T08:44:25.299Z,16.93
2019-02-04T08:46:55.560Z,15.33
2019-02-04T08:49:25.726Z,15.60
2019-02-04T08:51:55.789Z,15.03
2019-02-04T08:54:26.127Z,14.57
2019-02-04T08:56:56.188Z,14.60
2019-02-04T08:59:26.250Z,14.97
2019-02-04T09:01:56.324Z,14.90
2019-02-04T09:04:26.391Z,16.90
2019-02-04T09:06:56.448Z,15.80
2019-02-04T09:09:27.014Z,16.23
2019-02-04T09:11:57.428Z,16.07
2019-02-04T09:14:27.671Z,14.83
2019-02-04T09:16:57.745Z,14.17
2019-02-04T09:19:27.810Z,13.57
2019-02-04T09:21:57.894Z,15.13
2019-02-04T09:24:28.116Z,14.40
2019-02-04T09:26:58.177Z,13.80
2019-02-04T09:29:28.262Z,14.10
2019-02-04T09:31:58.335Z,14.87
2019-02-04T09:34:29.948Z,13.50
2019-02-04T09:37:00.279Z,12.90
2019-02-04T09:39:30.337Z,12.23
2019-02-04T09:42:00.521Z,13.73
2019-02-04T09:44:30.587Z,12.30
2019-02-04T09:47:00.684Z,11.37
2019-02-04T09:49:30.734Z,11.80
2019-02-04T09:52:01.114Z,14.10
2019-02-04T09:54:31.156Z,13.63
2019-02-04T09:57:01.222Z,14.57
2019-02-04T09:59:31.294Z,12.13
2019-02-04T10:02:01.354Z,10.80
2019-02-04T10:04:31.397Z,12.17
2019-02-04T10:07:01.564Z,13.03
2019-02-04T10:09:31.735Z,13.83
2019-02-04T10:12:01.800Z,15.57
2019-02-04T10:14:32.120Z,14.83
2019-02-04T10:17:02.137Z,16.10
2019-02-04T10:19:32.519Z,14.87
2019-02-04T10:22:02.621Z,13.80
2019-02-04T10:24:32.688Z,15.20
2019-02-04T10:27:02.848Z,16.70
2019-02-04T10:29:32.924Z,15.23
2019-02-04T10:32:03.091Z,15.83
2019-02-04T10:34:33.253Z,14.77
2019-02-04T10:37:03.343Z,14.83
2019-02-04T10:39:33.673Z,15.10
2019-02-04T10:42:03.803Z,13.50
2019-02-04T10:44:33.917Z,15.27
2019-02-04T10:47:04.458Z,14.17
2019-02-04T10:49:34.562Z,13.00
2019-02-04T10:52:04.698Z,15.10
2019-02-04T10:54:34.856Z,14.30
2019-02-04T10:57:04.883Z,16.03
2019-02-04T10:59:34.921Z,15.37
2019-02-04T11:02:05.748Z,13.80
2019-02-04T11:04:35.806Z,16.53
2019-02-04T11:07:06.132Z,16.67
2019-02-04T11:09:37.028Z,17.87
2019-02-04T11:12:07.162Z,18.37
2019-02-04T11:14:37.531Z,16.50
2019-02-04T11:17:07.656Z,15.40
2019-02-04T11:19:37.789Z,14.67
2019-02-04T11:22:07.903Z,17.80
2019-02-04T11:24:38.380Z,16.93
2019-02-04T11:27:08.856Z,16.30
2019-02-04T11:29:38.926Z,16.37
2019-02-04T11:32:09.047Z,16.77
2019-02-04T11:34:39.120Z,16.77
2019-02-04T11:37:09.297Z,14.50
2019-02-04T11:39:40.299Z,14.80
2019-02-04T11:42:10.431Z,15.70
2019-02-04T11:44:40.524Z,17.60
2019-02-04T11:47:10.723Z,18.80
2019-02-04T11:49:40.826Z,20.77
2019-02-04T11:52:10.895Z,20.87
2019-02-04T11:54:42.148Z,22.23
2019-02-04T11:57:12.415Z,22.00
2019-02-04T11:59:42.495Z,20.73
2019-02-04T12:02:12.985Z,18.97
2019-02-04T12:04:43.032Z,19.53
2019-02-04T12:07:14.004Z,19.20
2019-02-04T12:09:44.714Z,19.73
2019-02-04T12:12:15.193Z,23.13
2019-02-04T12:14:45.279Z,21.53
2019-02-04T12:17:16.029Z,18.33
2019-02-04T12:19:46.166Z,17.60
2019-02-04T12:22:16.751Z,20.80
2019-02-04T12:24:46.916Z,18.90
2019-02-04T12:27:17.527Z,18.47
2019-02-04T12:29:47.675Z,16.03
2019-02-04T12:32:18.243Z,17.43
2019-02-04T12:34:48.594Z,17.70
2019-02-04T12:37:18.786Z,19.47
2019-02-04T12:39:48.856Z,18.73
2019-02-04T12:42:19.030Z,16.93
2019-02-04T12:44:49.110Z,17.83
2019-02-04T12:47:19.413Z,18.33
2019-02-04T12:49:49.660Z,16.30
2019-02-04T12:52:21.106Z,15.27
2019-02-04T12:54:51.172Z,16.90
2019-02-04T12:57:21.220Z,16.57
2019-02-04T12:59:51.269Z,16.70
2019-02-04T13:02:21.612Z,15.00
2019-02-04T13:04:51.649Z,15.90
2019-02-04T13:07:21.728Z,15.83
2019-02-04T13:09:53.895Z,16.07
2019-02-04T13:12:23.988Z,14.97
2019-02-04T13:14:54.035Z,15.30
2019-02-04T13:17:26.846Z,14.70
2019-02-04T13:19:55.874Z,13.40
2019-02-04T13:22:25.934Z,13.63
2019-02-04T13:24:55.984Z,13.50
2019-02-04T13:27:26.489Z,13.83
2019-02-04T13:29:56.793Z,13.30
2019-02-04T13:32:28.320Z,14.03
2019-02-04T13:34:58.394Z,13.77
2019-02-04T13:37:28.429Z,13.33
2019-02-04T13:39:58.497Z,12.70
2019-02-04T13:42:28.838Z,12.13
2019-02-04T13:44:58.900Z,12.40
2019-02-04T13:47:29.065Z,11.47
2019-02-04T13:49:59.146Z,10.70
2019-02-04T13:52:29.202Z,11.23
2019-02-04T13:55:00.894Z,11.23
2019-02-04T13:57:30.977Z,10.17
2019-02-04T14:00:01.065Z,9.97
2019-02-04T14:02:31.174Z,10.17
2019-02-04T14:05:01.358Z,10.03
2019-02-04T14:07:31.583Z,11.00
2019-02-04T14:10:01.966Z,10.63
2019-02-04T14:12:32.232Z,10.87
2019-02-04T14:15:02.436Z,10.03
2019-02-04T14:17:32.500Z,9.57
2019-02-04T14:20:02.602Z,10.87
2019-02-04T14:22:33.037Z,11.03
2019-02-04T14:25:03.484Z,11.20
2019-02-04T14:27:33.543Z,9.97
2019-02-04T14:30:05.292Z,10.50
2019-02-04T14:32:35.496Z,11.80
2019-02-04T14:35:06.404Z,10.43
2019-02-04T14:37:37.521Z,10.70
2019-02-04T14:40:18.017Z,11.30
2019-02-04T14:42:42.916Z,12.03
2019-02-04T14:45:36.590Z,12.27
2019-02-04T14:49:08.057Z,11.90
2019-02-04T14:52:44.699Z,12.13
2019-02-04T14:55:50.611Z,12.90
2019-02-04T14:59:16.383Z,14.57
2019-02-04T15:02:53.957Z,14.67
2019-02-04T15:05:39.073Z,14.97
2019-02-04T15:08:56.897Z,15.83
2019-02-04T15:12:06.981Z,16.53
2019-02-04T15:15:19.180Z,16.53
2019-02-04T15:18:17.609Z,17.93
2019-02-04T15:21:15.408Z,15.37
2019-02-04T15:24:26.286Z,19.53
2019-02-04T15:27:41.426Z,16.67
2019-02-04T15:30:33.069Z,19.67
2019-02-04T15:33:52.348Z,18.37
2019-02-04T15:36:51.351Z,20.10
2019-02-04T15:40:05.347Z,17.87
2019-02-04T15:43:30.386Z,20.87
2019-02-04T15:46:41.109Z,19.47
2019-02-04T15:49:50.702Z,19.70
2019-02-04T15:52:20.655Z,19.67
2019-02-04T15:54:50.985Z,20.37
2019-02-04T15:57:21.473Z,21.67
2019-02-04T15:59:54.192Z,20.97
2019-02-04T16:02:26.726Z,21.47
2019-02-04T16:04:57.300Z,20.97
2019-02-04T16:07:30.698Z,22.17
2019-02-04T16:10:04.139Z,20.53
2019-02-04T16:12:36.836Z,20.73
2019-02-04T16:15:10.858Z,21.77
2019-02-04T16:17:43.371Z,22.07
2019-02-04T16:20:19.283Z,21.17
2019-02-04T16:22:58.513Z,22.63
2019-02-04T16:25:25.890Z,22.90
2019-02-04T16:27:59.095Z,21.17
2019-02-04T16:30:35.982Z,24.20
2019-02-04T16:33:07.298Z,22.83
2019-02-04T16:35:37.677Z,23.73
2019-02-04T16:38:07.956Z,23.20
2019-02-04T16:40:38.436Z,21.80
2019-02-04T16:43:08.505Z,23.07
2019-02-04T16:45:39.894Z,23.37
2019-02-04T16:48:10.149Z,24.00
2019-02-04T16:50:58.927Z,22.87
2019-02-04T16:53:21.367Z,23.23
2019-02-04T16:55:53.094Z,23.97
2019-02-04T16:58:23.604Z,24.17
2019-02-04T17:00:55.136Z,25.70
2019-02-04T17:03:25.222Z,24.03
2019-02-04T17:05:55.288Z,22.63
2019-02-04T17:08:25.765Z,24.13
2019-02-04T17:10:56.280Z,23.77
2019-02-04T17:13:26.400Z,24.10
2019-02-04T17:15:56.492Z,24.73
2019-02-04T17:18:27.796Z,24.30
2019-02-04T17:20:58.606Z,23.33
2019-02-04T17:23:29.699Z,24.93
2019-02-04T17:25:59.900Z,23.57
2019-02-04T17:28:29.960Z,26.27
2019-02-04T17:31:00.036Z,58.13
2019-02-04T17:33:30.220Z,80.30
2019-02-04T17:36:00.291Z,44.33
2019-02-04T17:38:30.349Z,26.40
2019-02-04T17:41:05.594Z,28.03
2019-02-04T17:43:36.712Z,25.63
2019-02-04T17:46:07.171Z,28.33
2019-02-04T17:48:43.554Z,42.90
2019-02-04T17:51:23.628Z,37.27
2019-02-04T17:53:53.979Z,32.33
2019-02-04T17:56:24.120Z,41.50
2019-02-04T17:58:54.254Z,50.47
2019-02-04T18:01:24.530Z,67.10
2019-02-04T18:03:55.726Z,68.70
2019-02-04T18:06:25.823Z,72.77
2019-02-04T18:08:56.038Z,45.43
2019-02-04T18:11:26.232Z,49.17
2019-02-04T18:13:57.132Z,83.93
2019-02-04T18:16:27.341Z,57.63
2019-02-04T18:18:57.556Z,44.93
2019-02-04T18:21:28.042Z,52.23
2019-02-04T18:23:58.182Z,42.70
2019-02-04T18:26:38.197Z,32.77
2019-02-04T18:29:08.471Z,36.03
2019-02-04T18:31:38.868Z,32.13
2019-02-04T18:34:08.908Z,30.87
2019-02-04T18:36:40.337Z,29.13
2019-02-04T18:39:11.386Z,30.20
2019-02-04T18:41:41.779Z,32.37
2019-02-04T18:44:11.879Z,29.50
2019-02-04T18:46:51.179Z,33.03
2019-02-04T18:49:21.673Z,105.73
2019-02-04T18:51:51.785Z,56.87
2019-02-04T18:54:22.862Z,70.27
2019-02-04T18:56:53.557Z,123.67
2019-02-04T18:59:24.300Z,65.53
2019-02-04T19:01:55.312Z,86.97
2019-02-04T19:04:26.969Z,95.33
2019-02-04T19:06:58.179Z,74.77
2019-02-04T19:09:28.930Z,64.80
2019-02-04T19:11:59.632Z,65.90
2019-02-04T19:14:30.335Z,43.17
2019-02-04T19:17:01.219Z,40.63
2019-02-04T19:19:32.291Z,39.60
2019-02-04T19:22:03.082Z,45.20
2019-02-04T19:24:33.957Z,41.47
2019-02-04T19:27:04.958Z,32.50
2019-02-04T19:29:36.332Z,35.43
2019-02-04T19:32:07.307Z,36.03
2019-02-04T19:34:38.279Z,42.13
2019-02-04T19:37:08.955Z,51.33
2019-02-04T19:39:40.974Z,45.10
2019-02-04T19:42:11.935Z,32.63
2019-02-04T19:44:42.955Z,30.63
2019-02-04T19:47:13.690Z,31.03
2019-02-04T19:49:45.399Z,31.87
2019-02-04T19:52:16.263Z,30.83
2019-02-04T19:54:48.451Z,29.40
2019-02-04T19:57:29.678Z,28.57
2019-02-04T20:00:13.505Z,27.43
2019-02-04T20:02:50.682Z,27.37
2019-02-04T20:05:39.992Z,27.57
2019-02-04T20:08:23.667Z,24.97
2019-02-04T20:11:04.643Z,24.03
2019-02-04T20:13:49.485Z,22.83
2019-02-04T20:16:33.097Z,23.37
2019-02-04T20:19:24.628Z,20.80
2019-02-04T20:22:00.563Z,19.97
2019-02-04T20:24:40.742Z,20.87
2019-02-04T20:27:21.661Z,19.57
2019-02-04T20:30:07.236Z,20.80
2019-02-04T20:32:46.908Z,18.83
2019-02-04T20:35:30.365Z,20.10
2019-02-04T20:38:10.461Z,18.33
2019-02-04T20:40:53.902Z,18.07
2019-02-04T20:43:38.876Z,18.57
2019-02-04T20:46:22.496Z,16.23
2019-02-04T20:49:04.322Z,15.47
2019-02-04T20:51:37.357Z,14.90
2019-02-04T20:54:20.110Z,13.67
2019-02-04T20:56:57.960Z,11.80
2019-02-04T20:59:32.182Z,12.50
2019-02-04T21:02:11.548Z,12.60
2019-02-04T21:04:53.113Z,11.63
2019-02-04T21:07:24.313Z,9.90
2019-02-04T21:09:55.110Z,9.57
2019-02-04T21:12:25.829Z,11.07
2019-02-04T21:14:56.756Z,10.60
2019-02-04T21:17:27.598Z,10.03
2019-02-04T21:19:58.274Z,9.37
2019-02-04T21:22:30.105Z,9.93
2019-02-04T21:25:00.899Z,8.83
2019-02-04T21:27:31.694Z,9.63
2019-02-04T21:30:02.578Z,9.73
2019-02-04T21:32:33.254Z,9.10
2019-02-04T21:35:04.247Z,9.40
2019-02-04T21:37:34.924Z,8.53
2019-02-04T21:40:08.298Z,8.53
2019-02-04T21:42:40.958Z,9.27
2019-02-04T21:45:32.377Z,8.70
2019-02-04T21:48:03.148Z,7.53
2019-02-04T21:50:33.854Z,8.03
2019-02-04T21:53:04.685Z,7.27
2019-02-04T21:55:36.017Z,8.27
2019-02-04T21:58:08.556Z,7.90
2019-02-04T22:00:42.704Z,8.57
2019-02-04T22:03:13.471Z,7.83
2019-02-04T22:05:44.090Z,7.80
2019-02-04T22:08:14.739Z,6.70
2019-02-04T22:10:47.909Z,7.30
2019-02-04T22:13:18.721Z,7.17
2019-02-04T22:15:50.147Z,7.63
2019-02-04T22:18:21.034Z,8.07
2019-02-04T22:20:52.869Z,8.20
2019-02-04T22:23:23.799Z,8.33
2019-02-04T22:25:55.113Z,7.17
2019-02-04T22:28:25.849Z,7.23
2019-02-04T22:30:57.242Z,7.57
2019-02-04T22:33:28.063Z,8.27
2019-02-04T22:36:04.333Z,7.40
2019-02-04T22:38:35.444Z,7.47
2019-02-04T22:41:06.665Z,7.80
2019-02-04T22:43:37.517Z,6.77
2019-02-04T22:46:08.805Z,6.70
2019-02-04T22:48:40.625Z,7.03
2019-02-04T22:51:11.547Z,7.33
2019-02-04T22:53:42.486Z,6.97
2019-02-04T22:56:13.550Z,8.37
2019-02-04T22:58:44.440Z,7.00
2019-02-04T23:02:07.073Z,7.50
2019-02-04T23:04:38.123Z,7.33
2019-02-04T23:07:09.046Z,6.93
2019-02-04T23:09:41.005Z,7.27
2019-02-04T23:12:11.822Z,6.87
2019-02-04T23:14:42.746Z,6.80
2019-02-04T23:17:13.766Z,6.57
2019-02-04T23:19:44.488Z,5.90
2019-02-04T23:22:15.273Z,6.87
2019-02-04T23:24:47.845Z,7.23
2019-02-04T23:27:21.215Z,6.40
2019-02-04T23:29:52.136Z,6.03
2019-02-04T23:32:22.895Z,6.77
2019-02-04T23:34:53.850Z,6.43
2019-02-04T23:37:24.538Z,6.23
2019-02-04T23:39:55.820Z,6.90
2019-02-04T23:42:26.455Z,6.40
2019-02-04T23:44:57.342Z,6.60
2019-02-04T23:47:31.233Z,6.33
2019-02-04T23:50:02.059Z,6.80
2019-02-04T23:52:32.705Z,6.60
2019-02-04T23:55:03.494Z,6.40
2019-02-04T23:57:34.184Z,7.03
